sensor_id;sensor_type;location;lat;lon;timestamp;pressure;altitude;pressure_sealevel;temperature;humidity
65800;BME280;52544;48.116;11.660;2024-03-02T00:00:02;94599.69;;;5.78;100.00
65800;BME280;52544;48.116;11.660;2024-03-02T00:02:42;94598.50;;;5.82;100.00
65800;BME280;52544;48.116;11.660;2024-03-02T00:05:11;94590.63;;;5.82;100.00
65800;BME280;52544;48.116;11.660;2024-03-02T00:07:36;94587.13;;;5.82;100.00
65800;BME280;52544;48.116;11.660;2024-03-02T00:10:08;94583.94;;;5.78;100.00
65800;BME280;52544;48.116;11.660;2024-03-02T00:12:34;94583.34;;;5.74;100.00
65800;BME280;52544;48.116;11.660;2024-03-02T00:14:59;94584.31;;;5.73;100.00
65800;BME280;52544;48.116;11.660;2024-03-02T00:17:28;94576.94;;;5.67;100.00
65800;BME280;52544;48.116;11.660;2024-03-02T00:19:54;94579.44;;;5.69;100.00
65800;BME280;52544;48.116;11.660;2024-03-02T00:22:20;94580.28;;;5.69;100.00
65800;BME280;52544;48.116;11.660;2024-03-02T00:24:45;94576.56;;;5.72;100.00
65800;BME280;52544;48.116;11.660;2024-03-02T00:27:14;94573.03;;;5.62;100.00
65800;BME280;52544;48.116;11.660;2024-03-02T00:29:40;94576.63;;;5.61;100.00
65800;BME280;52544;48.116;11.660;2024-03-02T00:32:16;94568.16;;;5.57;100.00
65800;BME280;52544;48.116;11.660;2024-03-02T00:34:42;94567.13;;;5.48;100.00
65800;BME280;52544;48.116;11.660;2024-03-02T00:37:08;94562.44;;;5.52;100.00
65800;BME280;52544;48.116;11.660;2024-03-02T00:39:33;94567.69;;;5.52;100.00
65800;BME280;52544;48.116;11.660;2024-03-02T00:41:59;94566.75;;;5.53;100.00
65800;BME280;52544;48.116;11.660;2024-03-02T00:44:25;94569.63;;;5.50;100.00
65800;BME280;52544;48.116;11.660;2024-03-02T00:46:59;94566.03;;;5.51;100.00
65800;BME280;52544;48.116;11.660;2024-03-02T00:49:25;94565.34;;;5.49;100.00
65800;BME280;52544;48.116;11.660;2024-03-02T00:51:54;94560.19;;;5.47;100.00
65800;BME280;52544;48.116;11.660;2024-03-02T00:54:23;94558.53;;;5.46;100.00
65800;BME280;52544;48.116;11.660;2024-03-02T00:56:50;94552.69;;;5.43;100.00
65800;BME280;52544;48.116;11.660;2024-03-02T00:59:16;94555.97;;;5.35;100.00
65800;BME280;52544;48.116;11.660;2024-03-02T01:01:42;94550.34;;;5.40;100.00
65800;BME280;52544;48.116;11.660;2024-03-02T01:04:08;94551.53;;;5.36;100.00
65800;BME280;52544;48.116;11.660;2024-03-02T01:06:35;94549.84;;;5.35;100.00
65800;BME280;52544;48.116;11.660;2024-03-02T01:09:00;94546.69;;;5.31;100.00
65800;BME280;52544;48.116;11.660;2024-03-02T01:11:26;94552.84;;;5.30;100.00
65800;BME280;52544;48.116;11.660;2024-03-02T01:13:51;94550.13;;;5.32;100.00
65800;BME280;52544;48.116;11.660;2024-03-02T01:16:17;94550.81;;;5.34;100.00
65800;BME280;52544;48.116;11.660;2024-03-02T01:18:43;94560.63;;;5.32;100.00
65800;BME280;52544;48.116;11.660;2024-03-02T01:21:08;94548.94;;;5.24;100.00
65800;BME280;52544;48.116;11.660;2024-03-02T01:23:33;94547.97;;;5.25;100.00
65800;BME280;52544;48.116;11.660;2024-03-02T01:25:59;94554.66;;;5.30;100.00
65800;BME280;52544;48.116;11.660;2024-03-02T01:28:25;94554.53;;;5.31;100.00
65800;BME280;52544;48.116;11.660;2024-03-02T01:30:50;94560.34;;;5.35;100.00
65800;BME280;52544;48.116;11.660;2024-03-02T01:33:19;94558.44;;;5.37;100.00
65800;BME280;52544;48.116;11.660;2024-03-02T01:35:45;94560.03;;;5.28;100.00
65800;BME280;52544;48.116;11.660;2024-03-02T01:38:10;94560.47;;;5.33;100.00
65800;BME280;52544;48.116;11.660;2024-03-02T01:40:37;94561.56;;;5.31;100.00
65800;BME280;52544;48.116;11.660;2024-03-02T01:43:04;94555.38;;;5.32;100.00
65800;BME280;52544;48.116;11.660;2024-03-02T01:45:29;94558.69;;;5.34;100.00
65800;BME280;52544;48.116;11.660;2024-03-02T01:47:55;94558.44;;;5.37;100.00
65800;BME280;52544;48.116;11.660;2024-03-02T01:50:32;94556.28;;;5.42;100.00
65800;BME280;52544;48.116;11.660;2024-03-02T01:52:58;94553.44;;;5.34;100.00
65800;BME280;52544;48.116;11.660;2024-03-02T01:55:24;94555.97;;;5.24;100.00
65800;BME280;52544;48.116;11.660;2024-03-02T01:57:50;94557.28;;;5.30;100.00
65800;BME280;52544;48.116;11.660;2024-03-02T02:00:17;94551.53;;;5.36;100.00
65800;BME280;52544;48.116;11.660;2024-03-02T02:02:43;94550.13;;;5.32;100.00
65800;BME280;52544;48.116;11.660;2024-03-02T02:05:09;94542.13;;;5.33;100.00
65800;BME280;52544;48.116;11.660;2024-03-02T02:07:35;94541.06;;;5.36;100.00
65800;BME280;52544;48.116;11.660;2024-03-02T02:10:01;94541.91;;;5.25;100.00
65800;BME280;52544;48.116;11.660;2024-03-02T02:12:26;94535.13;;;5.22;100.00
65800;BME280;52544;48.116;11.660;2024-03-02T02:14:52;94527.88;;;5.15;100.00
65800;BME280;52544;48.116;11.660;2024-03-02T02:17:17;94538.47;;;5.13;100.00
65800;BME280;52544;48.116;11.660;2024-03-02T02:19:43;94531.34;;;5.15;100.00
65800;BME280;52544;48.116;11.660;2024-03-02T02:22:09;94533.97;;;5.15;100.00
65800;BME280;52544;48.116;11.660;2024-03-02T02:24:35;94527.53;;;5.08;100.00
65800;BME280;52544;48.116;11.660;2024-03-02T02:27:00;94527.59;;;5.18;100.00
65800;BME280;52544;48.116;11.660;2024-03-02T02:29:25;94516.81;;;5.11;100.00
65800;BME280;52544;48.116;11.660;2024-03-02T02:31:51;94522.41;;;5.07;100.00
65800;BME280;52544;48.116;11.660;2024-03-02T02:34:16;94507.88;;;5.03;100.00
65800;BME280;52544;48.116;11.660;2024-03-02T02:36:42;94513.97;;;5.03;100.00
65800;BME280;52544;48.116;11.660;2024-03-02T02:39:12;94515.38;;;5.07;100.00
65800;BME280;52544;48.116;11.660;2024-03-02T02:41:39;94512.03;;;5.05;100.00
65800;BME280;52544;48.116;11.660;2024-03-02T02:44:04;94516.91;;;5.10;100.00
65800;BME280;52544;48.116;11.660;2024-03-02T02:46:30;94518.47;;;5.12;100.00
65800;BME280;52544;48.116;11.660;2024-03-02T02:48:55;94510.84;;;5.09;100.00
65800;BME280;52544;48.116;11.660;2024-03-02T02:51:21;94508.09;;;5.11;100.00
65800;BME280;52544;48.116;11.660;2024-03-02T02:53:46;94504.50;;;5.12;100.00
65800;BME280;52544;48.116;11.660;2024-03-02T02:56:11;94506.31;;;5.11;100.00
65800;BME280;52544;48.116;11.660;2024-03-02T02:58:37;94508.47;;;5.06;100.00
65800;BME280;52544;48.116;11.660;2024-03-02T03:01:03;94501.66;;;5.15;100.00
65800;BME280;52544;48.116;11.660;2024-03-02T03:03:29;94519.50;;;5.21;100.00
65800;BME280;52544;48.116;11.660;2024-03-02T03:05:54;94514.16;;;5.22;100.00
65800;BME280;52544;48.116;11.660;2024-03-02T03:08:20;94513.19;;;5.23;100.00
65800;BME280;52544;48.116;11.660;2024-03-02T03:10:45;94514.72;;;5.26;100.00
65800;BME280;52544;48.116;11.660;2024-03-02T03:13:11;94525.78;;;5.30;100.00
65800;BME280;52544;48.116;11.660;2024-03-02T03:15:36;94522.69;;;5.36;100.00
65800;BME280;52544;48.116;11.660;2024-03-02T03:18:05;94515.66;;;5.36;100.00
65800;BME280;52544;48.116;11.660;2024-03-02T03:20:31;94519.78;;;5.39;100.00
65800;BME280;52544;48.116;11.660;2024-03-02T03:22:57;94518.13;;;5.38;100.00
65800;BME280;52544;48.116;11.660;2024-03-02T03:25:23;94526.97;;;5.37;100.00
65800;BME280;52544;48.116;11.660;2024-03-02T03:27:48;94525.78;;;5.30;100.00
65800;BME280;52544;48.116;11.660;2024-03-02T03:30:14;94530.97;;;5.20;100.00
65800;BME280;52544;48.116;11.660;2024-03-02T03:32:39;94532.03;;;5.17;100.00
65800;BME280;52544;48.116;11.660;2024-03-02T03:35:06;94535.38;;;5.19;100.00
65800;BME280;52544;48.116;11.660;2024-03-02T03:37:31;94540.63;;;5.19;100.00
65800;BME280;52544;48.116;11.660;2024-03-02T03:40:02;94537.75;;;5.22;100.00
65800;BME280;52544;48.116;11.660;2024-03-02T03:42:28;94540.25;;;5.24;100.00
65800;BME280;52544;48.116;11.660;2024-03-02T03:44:53;94539.75;;;5.30;100.00
65800;BME280;52544;48.116;11.660;2024-03-02T03:47:19;94548.44;;;5.31;100.00
65800;BME280;52544;48.116;11.660;2024-03-02T03:49:45;94547.50;;;5.32;100.00
65800;BME280;52544;48.116;11.660;2024-03-02T03:52:10;94540.94;;;5.26;100.00
65800;BME280;52544;48.116;11.660;2024-03-02T03:54:36;94549.28;;;5.31;100.00
65800;BME280;52544;48.116;11.660;2024-03-02T03:57:03;94538.97;;;5.39;100.00
65800;BME280;52544;48.116;11.660;2024-03-02T03:59:29;94541.88;;;5.36;100.00
65800;BME280;52544;48.116;11.660;2024-03-02T04:01:54;94539.72;;;5.41;100.00
65800;BME280;52544;48.116;11.660;2024-03-02T04:04:20;94541.06;;;5.36;100.00
65800;BME280;52544;48.116;11.660;2024-03-02T04:06:45;94543.03;;;5.43;100.00
65800;BME280;52544;48.116;11.660;2024-03-02T04:09:10;94535.06;;;5.45;100.00
65800;BME280;52544;48.116;11.660;2024-03-02T04:11:36;94539.78;;;5.51;100.00
65800;BME280;52544;48.116;11.660;2024-03-02T04:14:01;94546.81;;;5.50;100.00
65800;BME280;52544;48.116;11.660;2024-03-02T04:16:27;94539.78;;;5.51;100.00
65800;BME280;52544;48.116;11.660;2024-03-02T04:18:54;94535.50;;;5.50;100.00
65800;BME280;52544;48.116;11.660;2024-03-02T04:21:19;94537.97;;;5.51;100.00
65800;BME280;52544;48.116;11.660;2024-03-02T04:23:45;94537.88;;;5.53;100.00
65800;BME280;52544;48.116;11.660;2024-03-02T04:26:10;94535.25;;;5.53;100.00
65800;BME280;52544;48.116;11.660;2024-03-02T04:28:35;94534.28;;;5.54;100.00
65800;BME280;52544;48.116;11.660;2024-03-02T04:31:01;94541.19;;;5.55;100.00
65800;BME280;52544;48.116;11.660;2024-03-02T04:33:26;94543.22;;;5.51;100.00
65800;BME280;52544;48.116;11.660;2024-03-02T04:35:52;94546.28;;;5.36;100.00
65800;BME280;52544;48.116;11.660;2024-03-02T04:38:17;94547.88;;;5.27;100.00
65800;BME280;52544;48.116;11.660;2024-03-02T04:40:42;94555.41;;;5.20;100.00
65800;BME280;52544;48.116;11.660;2024-03-02T04:43:08;94570.69;;;5.15;100.00
65800;BME280;52544;48.116;11.660;2024-03-02T04:45:34;94564.69;;;5.13;100.00
65800;BME280;52544;48.116;11.660;2024-03-02T04:48:00;94569.25;;;5.11;100.00
65800;BME280;52544;48.116;11.660;2024-03-02T04:50:25;94574.38;;;5.13;100.00
65800;BME280;52544;48.116;11.660;2024-03-02T04:52:50;94573.78;;;5.09;100.00
65800;BME280;52544;48.116;11.660;2024-03-02T04:55:16;94577.56;;;5.16;100.00
65800;BME280;52544;48.116;11.660;2024-03-02T04:57:41;94571.59;;;5.25;100.00
65800;BME280;52544;48.116;11.660;2024-03-02T05:00:07;94581.59;;;5.32;100.00
65800;BME280;52544;48.116;11.660;2024-03-02T05:02:34;94581.34;;;5.35;100.00
65800;BME280;52544;48.116;11.660;2024-03-02T05:05:00;94584.56;;;5.38;100.00
65800;BME280;52544;48.116;11.660;2024-03-02T05:07:25;94587.75;;;5.42;100.00
65800;BME280;52544;48.116;11.660;2024-03-02T05:09:51;94585.28;;;5.40;100.00
65800;BME280;52544;48.116;11.660;2024-03-02T05:12:17;94588.50;;;5.33;100.00
65800;BME280;52544;48.116;11.660;2024-03-02T05:15:01;94591.00;;;5.34;100.00
65800;BME280;52544;48.116;11.660;2024-03-02T05:17:27;94598.28;;;5.31;100.00
65800;BME280;52544;48.116;11.660;2024-03-02T05:19:52;94608.59;;;5.22;100.00
65800;BME280;52544;48.116;11.660;2024-03-02T05:22:17;94604.41;;;5.20;100.00
65800;BME280;52544;48.116;11.660;2024-03-02T05:24:43;94600.22;;;5.17;100.00
65800;BME280;52544;48.116;11.660;2024-03-02T05:27:08;94609.28;;;5.13;100.00
65800;BME280;52544;48.116;11.660;2024-03-02T05:29:34;94605.22;;;5.20;100.00
65800;BME280;52544;48.116;11.660;2024-03-02T05:31:59;94595.94;;;5.28;100.00
65800;BME280;52544;48.116;11.660;2024-03-02T05:34:24;94598.19;;;5.32;100.00
65800;BME280;52544;48.116;11.660;2024-03-02T05:36:50;94604.72;;;5.38;100.00
65800;BME280;52544;48.116;11.660;2024-03-02T05:39:15;94597.66;;;5.38;100.00
65800;BME280;52544;48.116;11.660;2024-03-02T05:41:41;94603.66;;;5.40;100.00
65800;BME280;52544;48.116;11.660;2024-03-02T05:44:06;94598.13;;;5.43;100.00
65800;BME280;52544;48.116;11.660;2024-03-02T05:46:32;94595.41;;;5.45;100.00
65800;BME280;52544;48.116;11.660;2024-03-02T05:48:59;94602.44;;;5.44;100.00
65800;BME280;52544;48.116;11.660;2024-03-02T05:51:25;94603.50;;;5.42;100.00
65800;BME280;52544;48.116;11.660;2024-03-02T05:53:50;94594.66;;;5.43;100.00
65800;BME280;52544;48.116;11.660;2024-03-02T05:56:15;94605.16;;;5.43;100.00
65800;BME280;52544;48.116;11.660;2024-03-02T05:58:42;94598.03;;;5.45;100.00
65800;BME280;52544;48.116;11.660;2024-03-02T06:01:26;94599.44;;;5.49;100.00
65800;BME280;52544;48.116;11.660;2024-03-02T06:03:56;94599.09;;;5.42;100.00
65800;BME280;52544;48.116;11.660;2024-03-02T06:06:24;94596.38;;;5.44;100.00
65800;BME280;52544;48.116;11.660;2024-03-02T06:08:50;94600.66;;;5.45;100.00
65800;BME280;52544;48.116;11.660;2024-03-02T06:11:16;94603.03;;;5.48;100.00
65800;BME280;52544;48.116;11.660;2024-03-02T06:13:41;94613.38;;;5.49;100.00
65800;BME280;52544;48.116;11.660;2024-03-02T06:16:06;94607.31;;;5.49;100.00
65800;BME280;52544;48.116;11.660;2024-03-02T06:18:34;94607.78;;;5.54;100.00
65800;BME280;52544;48.116;11.660;2024-03-02T06:20:59;94605.84;;;5.56;100.00
65800;BME280;52544;48.116;11.660;2024-03-02T06:23:26;94610.97;;;5.58;100.00
65800;BME280;52544;48.116;11.660;2024-03-02T06:25:51;94610.84;;;5.59;100.00
65800;BME280;52544;48.116;11.660;2024-03-02T06:28:17;94605.50;;;5.61;100.00
65800;BME280;52544;48.116;11.660;2024-03-02T06:30:42;94607.59;;;5.67;100.00
65800;BME280;52544;48.116;11.660;2024-03-02T06:33:09;94607.03;;;5.63;100.00
65800;BME280;52544;48.116;11.660;2024-03-02T06:35:34;94613.94;;;5.64;100.00
65800;BME280;52544;48.116;11.660;2024-03-02T06:38:00;94606.19;;;5.63;100.00
65800;BME280;52544;48.116;11.660;2024-03-02T06:40:25;94612.84;;;5.67;100.00
65800;BME280;52544;48.116;11.660;2024-03-02T06:42:51;94611.78;;;5.69;100.00
65800;BME280;52544;48.116;11.660;2024-03-02T06:45:16;94609.16;;;5.69;100.00
65800;BME280;52544;48.116;11.660;2024-03-02T06:47:42;94606.44;;;5.60;100.00
65800;BME280;52544;48.116;11.660;2024-03-02T06:50:08;94600.94;;;5.63;100.00
65800;BME280;52544;48.116;11.660;2024-03-02T06:52:33;94603.31;;;5.66;100.00
65800;BME280;52544;48.116;11.660;2024-03-02T06:54:59;94602.13;;;5.70;100.00
65800;BME280;52544;48.116;11.660;2024-03-02T06:57:24;94601.84;;;5.73;100.00
65800;BME280;52544;48.116;11.660;2024-03-02T06:59:50;94607.69;;;5.76;100.00
65800;BME280;52544;48.116;11.660;2024-03-02T07:02:16;94603.25;;;5.77;100.00
65800;BME280;52544;48.116;11.660;2024-03-02T07:04:42;94608.84;;;5.84;100.00
65800;BME280;52544;48.116;11.660;2024-03-02T07:07:07;94599.03;;;5.86;100.00
65800;BME280;52544;48.116;11.660;2024-03-02T07:09:33;94608.03;;;5.83;100.00
65800;BME280;52544;48.116;11.660;2024-03-02T07:11:58;94607.44;;;5.80;100.00
65800;BME280;52544;48.116;11.660;2024-03-02T07:14:23;94608.50;;;5.77;100.00
65800;BME280;52544;48.116;11.660;2024-03-02T07:17:11;94601.47;;;5.77;100.00
65800;BME280;52544;48.116;11.660;2024-03-02T07:19:38;94609.63;;;5.74;100.00
65800;BME280;52544;48.116;11.660;2024-03-02T07:22:06;94601.34;;;5.79;100.00
65800;BME280;52544;48.116;11.660;2024-03-02T07:24:31;94602.19;;;5.80;100.00
65800;BME280;52544;48.116;11.660;2024-03-02T07:26:56;94603.84;;;5.81;100.00
65800;BME280;52544;48.116;11.660;2024-03-02T07:29:22;94605.84;;;5.88;100.00
65800;BME280;52544;48.116;11.660;2024-03-02T07:31:47;94612.66;;;5.91;100.00
65800;BME280;52544;48.116;11.660;2024-03-02T07:34:13;94612.31;;;5.95;100.00
65800;BME280;52544;48.116;11.660;2024-03-02T07:36:38;94612.31;;;5.95;100.00
65800;BME280;52544;48.116;11.660;2024-03-02T07:39:04;94616.09;;;5.91;100.00
65800;BME280;52544;48.116;11.660;2024-03-02T07:41:29;94610.25;;;5.99;100.00
65800;BME280;52544;48.116;11.660;2024-03-02T07:43:55;94612.50;;;6.04;100.00
65800;BME280;52544;48.116;11.660;2024-03-02T07:46:20;94617.38;;;6.08;100.00
65800;BME280;52544;48.116;11.660;2024-03-02T07:48:45;94614.22;;;6.14;100.00
65800;BME280;52544;48.116;11.660;2024-03-02T07:51:11;94615.25;;;6.23;100.00
65800;BME280;52544;48.116;11.660;2024-03-02T07:53:37;94617.44;;;6.39;100.00
65800;BME280;52544;48.116;11.660;2024-03-02T07:56:02;94613.25;;;6.36;100.00
65800;BME280;52544;48.116;11.660;2024-03-02T07:58:28;94612.22;;;6.48;100.00
65800;BME280;52544;48.116;11.660;2024-03-02T08:00:54;94620.44;;;6.55;100.00
65800;BME280;52544;48.116;11.660;2024-03-02T08:03:20;94623.75;;;6.57;100.00
65800;BME280;52544;48.116;11.660;2024-03-02T08:05:45;94621.25;;;6.56;100.00
65800;BME280;52544;48.116;11.660;2024-03-02T08:08:11;94632.84;;;6.53;100.00
65800;BME280;52544;48.116;11.660;2024-03-02T08:10:37;94626.00;;;6.62;100.00
65800;BME280;52544;48.116;11.660;2024-03-02T08:13:02;94623.19;;;6.54;100.00
65800;BME280;52544;48.116;11.660;2024-03-02T08:15:27;94619.66;;;6.64;100.00
65800;BME280;52544;48.116;11.660;2024-03-02T08:17:53;94622.56;;;6.71;100.00
65800;BME280;52544;48.116;11.660;2024-03-02T08:20:19;94626.56;;;6.65;100.00
65800;BME280;52544;48.116;11.660;2024-03-02T08:22:44;94623.09;;;6.65;100.00
65800;BME280;52544;48.116;11.660;2024-03-02T08:25:10;94621.34;;;6.75;100.00
65800;BME280;52544;48.116;11.660;2024-03-02T08:27:36;94618.91;;;6.83;100.00
65800;BME280;52544;48.116;11.660;2024-03-02T08:30:02;94623.81;;;6.97;100.00
65800;BME280;52544;48.116;11.660;2024-03-02T08:32:31;94625.00;;;7.14;100.00
65800;BME280;52544;48.116;11.660;2024-03-02T08:34:56;94629.38;;;7.44;100.00
65800;BME280;52544;48.116;11.660;2024-03-02T08:37:22;94632.16;;;7.62;100.00
65800;BME280;52544;48.116;11.660;2024-03-02T08:39:47;94621.25;;;7.86;100.00
65800;BME280;52544;48.116;11.660;2024-03-02T08:42:13;94623.88;;;7.96;100.00
65800;BME280;52544;48.116;11.660;2024-03-02T08:44:38;94615.16;;;8.05;100.00
65800;BME280;52544;48.116;11.660;2024-03-02T08:47:03;94625.56;;;8.16;100.00
65800;BME280;52544;48.116;11.660;2024-03-02T08:49:29;94617.50;;;8.47;100.00
65800;BME280;52544;48.116;11.660;2024-03-02T08:51:54;94621.38;;;8.33;100.00
65800;BME280;52544;48.116;11.660;2024-03-02T08:54:21;94619.84;;;8.40;100.00
65800;BME280;52544;48.116;11.660;2024-03-02T08:56:48;94619.97;;;8.58;100.00
65800;BME280;52544;48.116;11.660;2024-03-02T08:59:13;94622.41;;;8.79;100.00
65800;BME280;52544;48.116;11.660;2024-03-02T09:01:38;94622.41;;;8.89;100.00
65800;BME280;52544;48.116;11.660;2024-03-02T09:04:07;94616.66;;;9.31;100.00
65800;BME280;52544;48.116;11.660;2024-03-02T09:06:34;94610.19;;;9.43;100.00
65800;BME280;52544;48.116;11.660;2024-03-02T09:08:59;94613.06;;;9.77;100.00
65800;BME280;52544;48.116;11.660;2024-03-02T09:11:25;94620.47;;;9.91;100.00
65800;BME280;52544;48.116;11.660;2024-03-02T09:13:50;94624.00;;;10.00;100.00
65800;BME280;52544;48.116;11.660;2024-03-02T09:16:16;94616.44;;;10.05;100.00
65800;BME280;52544;48.116;11.660;2024-03-02T09:18:41;94616.34;;;10.24;100.00
65800;BME280;52544;48.116;11.660;2024-03-02T09:21:07;94611.16;;;10.23;100.00
65800;BME280;52544;48.116;11.660;2024-03-02T09:23:33;94612.91;;;10.32;100.00
65800;BME280;52544;48.116;11.660;2024-03-02T09:25:59;94618.06;;;10.34;100.00
65800;BME280;52544;48.116;11.660;2024-03-02T09:28:24;94616.00;;;10.27;100.00
65800;BME280;52544;48.116;11.660;2024-03-02T09:30:50;94617.50;;;10.48;100.00
65800;BME280;52544;48.116;11.660;2024-03-02T09:33:15;94614.78;;;10.40;100.00
65800;BME280;52544;48.116;11.660;2024-03-02T09:35:40;94618.31;;;10.66;100.00
65800;BME280;52544;48.116;11.660;2024-03-02T09:38:06;94607.72;;;10.66;100.00
65800;BME280;52544;48.116;11.660;2024-03-02T09:40:31;94609.03;;;10.62;100.00
65800;BME280;52544;48.116;11.660;2024-03-02T09:42:57;94605.50;;;10.80;100.00
65800;BME280;52544;48.116;11.660;2024-03-02T09:45:24;94604.06;;;11.19;100.00
65800;BME280;52544;48.116;11.660;2024-03-02T09:47:50;94599.88;;;11.51;100.00
65800;BME280;52544;48.116;11.660;2024-03-02T09:50:16;94601.16;;;11.97;100.00
65800;BME280;52544;48.116;11.660;2024-03-02T09:52:48;94587.13;;;12.38;100.00
65800;BME280;52544;48.116;11.660;2024-03-02T09:55:15;94593.44;;;12.29;100.00
65800;BME280;52544;48.116;11.660;2024-03-02T09:57:42;94584.16;;;12.49;100.00
65800;BME280;52544;48.116;11.660;2024-03-02T10:00:08;94585.59;;;12.76;100.00
65800;BME280;52544;48.116;11.660;2024-03-02T10:02:34;94590.69;;;13.02;100.00
65800;BME280;52544;48.116;11.660;2024-03-02T10:04:59;94596.69;;;12.88;96.97
65800;BME280;52544;48.116;11.660;2024-03-02T10:07:24;94588.38;;;12.99;94.13
65800;BME280;52544;48.116;11.660;2024-03-02T10:09:50;94595.28;;;13.33;96.10
65800;BME280;52544;48.116;11.660;2024-03-02T10:12:18;94582.72;;;13.58;92.72
65800;BME280;52544;48.116;11.660;2024-03-02T10:14:43;94580.72;;;13.91;93.32
65800;BME280;52544;48.116;11.660;2024-03-02T10:17:11;94583.31;;;13.99;90.39
65800;BME280;52544;48.116;11.660;2024-03-02T10:19:38;94570.66;;;14.01;91.30
65800;BME280;52544;48.116;11.660;2024-03-02T10:22:08;94570.25;;;14.12;85.69
65800;BME280;52544;48.116;11.660;2024-03-02T10:24:41;94574.94;;;14.10;81.75
65800;BME280;52544;48.116;11.660;2024-03-02T10:27:15;94575.50;;;14.43;82.51
65800;BME280;52544;48.116;11.660;2024-03-02T10:29:42;94577.78;;;14.32;77.78
65800;BME280;52544;48.116;11.660;2024-03-02T10:32:11;94567.53;;;14.20;81.46
65800;BME280;52544;48.116;11.660;2024-03-02T10:34:40;94567.41;;;14.14;85.85
65800;BME280;52544;48.116;11.660;2024-03-02T10:37:06;94572.19;;;14.64;81.27
65800;BME280;52544;48.116;11.660;2024-03-02T10:39:34;94567.28;;;14.91;81.20
65800;BME280;52544;48.116;11.660;2024-03-02T10:42:02;94568.22;;;14.60;79.56
65800;BME280;52544;48.116;11.660;2024-03-02T10:44:29;94549.50;;;14.31;83.98
65800;BME280;52544;48.116;11.660;2024-03-02T10:46:55;94553.75;;;14.17;88.99
65800;BME280;52544;48.116;11.660;2024-03-02T10:49:22;94541.88;;;14.65;84.58
65800;BME280;52544;48.116;11.660;2024-03-02T10:51:49;94549.81;;;14.73;82.07
65800;BME280;52544;48.116;11.660;2024-03-02T10:54:14;94542.59;;;14.97;78.45
65800;BME280;52544;48.116;11.660;2024-03-02T10:56:41;94540.63;;;15.20;74.54
65800;BME280;52544;48.116;11.660;2024-03-02T11:02:14;94515.59;;;15.81;71.59
65800;BME280;52544;48.116;11.660;2024-03-02T11:04:41;94524.28;;;15.89;69.94
65800;BME280;52544;48.116;11.660;2024-03-02T11:07:09;94522.69;;;16.16;67.65
65800;BME280;52544;48.116;11.660;2024-03-02T11:09:52;94518.63;;;16.20;67.60
65800;BME280;52544;48.116;11.660;2024-03-02T11:12:23;94511.50;;;16.49;65.86
65800;BME280;52544;48.116;11.660;2024-03-02T11:14:55;94511.25;;;16.44;65.17
65800;BME280;52544;48.116;11.660;2024-03-02T11:17:21;94507.00;;;16.56;62.96
65800;BME280;52544;48.116;11.660;2024-03-02T11:19:47;94501.75;;;16.91;62.76
65800;BME280;52544;48.116;11.660;2024-03-02T11:22:13;94491.72;;;16.71;63.35
65800;BME280;52544;48.116;11.660;2024-03-02T11:24:47;94486.13;;;16.94;61.43
65800;BME280;52544;48.116;11.660;2024-03-02T11:27:13;94481.28;;;17.05;59.97
65800;BME280;52544;48.116;11.660;2024-03-02T11:32:13;94479.72;;;17.23;59.52
65800;BME280;52544;48.116;11.660;2024-03-02T11:34:41;94471.38;;;17.40;59.55
65800;BME280;52544;48.116;11.660;2024-03-02T11:37:11;94468.97;;;17.10;57.46
65800;BME280;52544;48.116;11.660;2024-03-02T11:39:38;94472.53;;;16.83;58.23
65800;BME280;52544;48.116;11.660;2024-03-02T11:42:06;94471.97;;;16.38;59.08
65800;BME280;52544;48.116;11.660;2024-03-02T11:44:36;94464.13;;;16.58;60.44
65800;BME280;52544;48.116;11.660;2024-03-02T11:47:05;94451.59;;;16.58;62.12
65800;BME280;52544;48.116;11.660;2024-03-02T11:52:13;94450.66;;;16.72;60.75
65800;BME280;52544;48.116;11.660;2024-03-02T11:54:41;94448.81;;;16.73;62.59
65800;BME280;52544;48.116;11.660;2024-03-02T11:57:16;94440.53;;;16.96;61.46
65800;BME280;52544;48.116;11.660;2024-03-02T11:59:42;94434.34;;;16.33;62.72
65800;BME280;52544;48.116;11.660;2024-03-02T12:02:14;94433.81;;;16.16;68.47
65800;BME280;52544;48.116;11.660;2024-03-02T12:04:41;94433.00;;;15.94;68.19
65800;BME280;52544;48.116;11.660;2024-03-02T12:07:08;94433.06;;;15.79;66.49
65800;BME280;52544;48.116;11.660;2024-03-02T12:09:34;94426.00;;;15.71;68.31
65800;BME280;52544;48.116;11.660;2024-03-02T12:14:29;94420.38;;;15.81;70.87
65800;BME280;52544;48.116;11.660;2024-03-02T12:16:55;94418.19;;;15.91;71.19
65800;BME280;52544;48.116;11.660;2024-03-02T12:19:21;94419.13;;;16.05;67.91
65800;BME280;52544;48.116;11.660;2024-03-02T12:21:46;94412.34;;;16.03;68.08
65800;BME280;52544;48.116;11.660;2024-03-02T12:24:12;94415.50;;;15.85;69.56
65800;BME280;52544;48.116;11.660;2024-03-02T12:26:37;94414.38;;;16.00;68.15
65800;BME280;52544;48.116;11.660;2024-03-02T12:29:02;94412.50;;;15.73;68.89
65800;BME280;52544;48.116;11.660;2024-03-02T12:31:28;94409.47;;;15.40;68.67
65800;BME280;52544;48.116;11.660;2024-03-02T12:33:54;94407.50;;;15.48;70.05
65800;BME280;52544;48.116;11.660;2024-03-02T12:36:19;94396.81;;;15.63;70.54
65800;BME280;52544;48.116;11.660;2024-03-02T12:38:45;94395.81;;;15.64;70.40
65800;BME280;52544;48.116;11.660;2024-03-02T12:41:15;94392.94;;;15.66;69.35
65800;BME280;52544;48.116;11.660;2024-03-02T12:43:40;94393.59;;;15.68;66.74
65800;BME280;52544;48.116;11.660;2024-03-02T12:46:06;94385.75;;;15.66;67.50
65800;BME280;52544;48.116;11.660;2024-03-02T12:48:31;94380.94;;;15.77;68.78
65800;BME280;52544;48.116;11.660;2024-03-02T12:50:57;94376.38;;;15.70;69.87
65800;BME280;52544;48.116;11.660;2024-03-02T12:53:23;94369.38;;;15.69;70.58
65800;BME280;52544;48.116;11.660;2024-03-02T12:55:49;94357.56;;;15.79;70.10